Time;durP1;ratioP1;P1;durP2;ratioP2;P2;SDS_P1;SDS_P2;PMS_P1;PMS_P2;Temp;Humidity;BMP_temperature;BMP_pressure;BME280_temperature;BME280_humidity;BME280_pressure;Samples;Min_cycle;Max_cycle;Signal;HPM_P1;HPM_P2
2022/11/09 00:01:26;;;;;;;0.85;0.57;;;;;;;24.40;35.92;98996.00;5122854;28;20503;-66
2022/11/09 00:04:00;;;;;;;1.05;0.70;;;;;;;24.44;35.85;98996.00;5128701;28;20043;-67
2022/11/09 00:06:27;;;;;;;0.75;0.60;;;;;;;24.41;35.87;98985.59;5128961;28;20050;-67
2022/11/09 00:08:52;;;;;;;0.90;0.60;;;;;;;24.41;35.99;99005.97;5110294;28;20044;-59
2022/11/09 00:11:18;;;;;;;0.85;0.55;;;;;;;24.39;35.99;98993.63;5120722;28;20132;-67
2022/11/09 00:13:44;;;;;;;0.73;0.50;;;;;;;24.37;36.00;98991.25;5111721;28;20032;-59
2022/11/09 00:16:12;;;;;;;0.85;0.60;;;;;;;24.36;35.85;98992.44;5120333;28;20536;-67
2022/11/09 00:18:39;;;;;;;0.57;0.50;;;;;;;24.37;35.98;98993.25;5109940;28;20040;-66
2022/11/09 00:21:09;;;;;;;1.00;0.60;;;;;;;24.34;35.89;98977.28;5104204;28;20039;-66
2022/11/09 00:23:35;;;;;;;0.95;0.57;;;;;;;24.35;36.00;98976.06;5115151;28;20044;-67
2022/11/09 00:26:05;;;;;;;0.45;0.43;;;;;;;24.33;36.00;98975.69;5129509;28;20388;-67
2022/11/09 00:28:32;;;;;;;0.60;0.40;;;;;;;24.31;36.06;98976.06;5114933;28;20067;-59
2022/11/09 00:31:07;;;;;;;0.90;0.60;;;;;;;24.31;36.07;98984.47;5121085;28;20055;-67
2022/11/09 00:33:32;;;;;;;0.68;0.50;;;;;;;24.32;35.90;98974.06;5115021;28;20040;-68
2022/11/09 00:35:58;;;;;;;0.65;0.50;;;;;;;24.33;35.79;98984.06;5114593;28;20063;-67
2022/11/09 00:38:23;;;;;;;1.65;0.60;;;;;;;24.32;36.04;98982.44;5108865;28;20052;-59
2022/11/09 00:40:49;;;;;;;0.95;0.60;;;;;;;24.31;35.89;98976.06;5124647;27;20535;-59
2022/11/09 00:43:15;;;;;;;0.77;0.50;;;;;;;24.33;35.98;98970.09;5112736;28;20059;-66
2022/11/09 00:45:40;;;;;;;1.63;0.60;;;;;;;24.30;36.11;98966.09;5131642;28;20043;-59
2022/11/09 00:48:06;;;;;;;0.75;0.52;;;;;;;24.32;36.26;98974.06;5121567;28;20534;-67
2022/11/09 00:50:32;;;;;;;0.50;0.40;;;;;;;24.29;36.15;98963.69;5119444;28;20040;-67
2022/11/09 00:52:58;;;;;;;0.98;0.32;;;;;;;24.31;36.14;98966.88;5117109;28;20385;-67
2022/11/09 00:55:23;;;;;;;0.45;0.40;;;;;;;24.27;36.30;98958.50;5122010;28;20035;-67
2022/11/09 00:57:52;;;;;;;0.55;0.35;;;;;;;24.29;36.46;98972.91;5111989;28;20043;-67
2022/11/09 01:00:22;;;;;;;0.50;0.40;;;;;;;24.28;36.38;98962.09;5115463;28;20036;-67
2022/11/09 01:02:51;;;;;;;1.05;0.60;;;;;;;24.28;36.12;98967.69;5124648;28;20168;-67
2022/11/09 01:05:18;;;;;;;0.80;0.57;;;;;;;24.28;36.14;98962.09;5104886;28;20044;-59
2022/11/09 01:07:43;;;;;;;0.85;0.50;;;;;;;24.28;36.42;98957.31;5111583;28;20042;-60
2022/11/09 01:10:09;;;;;;;0.77;0.43;;;;;;;24.28;36.30;98950.94;5122139;28;20446;-67
2022/11/09 01:12:34;;;;;;;0.47;0.40;;;;;;;24.26;36.30;98939.38;5115868;28;20047;-67
2022/11/09 01:14:59;;;;;;;0.65;0.50;;;;;;;24.27;36.34;98949.34;5126187;28;20047;-59
2022/11/09 01:17:25;;;;;;;0.88;0.50;;;;;;;24.26;36.34;98945.75;5117969;28;20047;-59
2022/11/09 01:19:50;;;;;;;0.77;0.50;;;;;;;24.27;36.21;98949.34;5120667;28;20113;-59
2022/11/09 01:22:17;;;;;;;0.80;0.50;;;;;;;24.27;36.12;98954.94;5129157;28;20031;-67
2022/11/09 01:24:43;;;;;;;0.70;0.50;;;;;;;24.28;36.16;98953.72;5121030;28;20043;-67
2022/11/09 01:27:08;;;;;;;0.52;0.32;;;;;;;24.26;36.31;98947.75;5115472;28;20054;-59
2022/11/09 01:29:34;;;;;;;0.82;0.40;;;;;;;24.27;36.20;98952.13;5118810;28;20048;-60
2022/11/09 01:31:59;;;;;;;0.60;0.32;;;;;;;24.26;36.24;98936.56;5111877;28;20408;-61
2022/11/09 01:34:27;;;;;;;1.05;0.52;;;;;;;24.26;36.02;98930.97;5113269;28;20031;-66
2022/11/09 01:36:52;;;;;;;0.75;0.45;;;;;;;24.26;35.96;98928.97;5111889;28;20074;-67
2022/11/09 01:39:18;;;;;;;0.95;0.55;;;;;;;24.27;36.10;98938.16;5114212;28;20071;-59
2022/11/09 01:41:44;;;;;;;1.00;0.40;;;;;;;24.25;35.94;98940.56;5111527;28;20042;-67
2022/11/09 01:44:14;;;;;;;0.45;0.40;;;;;;;24.26;36.01;98930.97;5111374;28;20050;-67
2022/11/09 01:46:44;;;;;;;0.68;0.40;;;;;;;24.25;35.97;98929.41;5120798;28;20066;-59
2022/11/09 01:49:39;;;;;;;0.35;0.30;;;;;;;24.25;35.88;98935.00;5118084;28;20126;-68
2022/11/09 01:52:20;;;;;;;0.70;0.57;;;;;;;24.26;36.05;98923.38;5108198;28;20415;-59
2022/11/09 01:54:50;;;;;;;0.50;0.40;;;;;;;24.26;35.82;98923.38;5114074;28;20051;-68
2022/11/09 01:57:26;;;;;;;0.50;0.40;;;;;;;24.26;35.84;98917.81;5113931;28;20050;-59
2022/11/09 01:59:57;;;;;;;0.80;0.40;;;;;;;24.24;36.00;98914.63;5118389;28;20050;-59
2022/11/09 02:02:23;;;;;;;0.93;0.40;;;;;;;24.25;35.74;98907.84;5124577;28;20046;-67
2022/11/09 02:04:58;;;;;;;0.45;0.40;;;;;;;24.23;35.96;98913.03;5114463;28;20495;-59
2022/11/09 02:07:23;;;;;;;0.63;0.30;;;;;;;24.27;35.80;98908.22;5111271;28;20558;-68
2022/11/09 02:10:00;;;;;;;0.38;0.30;;;;;;;24.26;35.73;98897.44;5112339;28;20126;-67
2022/11/09 02:12:31;;;;;;;0.43;0.40;;;;;;;24.26;35.92;98898.25;5130445;28;20047;-59
2022/11/09 02:14:57;;;;;;;0.38;0.30;;;;;;;24.26;35.75;98894.66;5123033;28;20542;-58
2022/11/09 02:17:23;;;;;;;0.25;0.25;;;;;;;24.26;35.80;98895.44;5127054;28;20047;-59
2022/11/09 02:19:48;;;;;;;0.45;0.30;;;;;;;24.27;35.91;98890.66;5131752;28;20047;-59
2022/11/09 02:22:14;;;;;;;0.40;0.30;;;;;;;24.24;35.59;98897.06;5117259;28;20130;-68
2022/11/09 02:24:40;;;;;;;0.30;0.30;;;;;;;24.26;35.73;98892.66;5114531;28;20048;-67
2022/11/09 02:27:06;;;;;;;0.40;0.30;;;;;;;24.28;35.66;98892.22;5111320;28;20047;-59
2022/11/09 02:29:35;;;;;;;0.40;0.30;;;;;;;24.27;35.58;98887.84;5111737;28;20035;-68
2022/11/09 02:32:10;;;;;;;0.73;0.47;;;;;;;24.26;35.80;98889.06;5120983;28;20043;-67
2022/11/09 02:34:36;;;;;;;0.40;0.32;;;;;;;24.25;35.53;98893.06;5120043;28;20109;-60
2022/11/09 02:37:01;;;;;;;0.30;0.20;;;;;;;24.23;35.63;98887.91;5118002;28;20118;-60
2022/11/09 02:39:27;;;;;;;0.20;0.20;;;;;;;24.25;35.88;98898.66;5117011;28;20038;-60
2022/11/09 02:41:59;;;;;;;0.22;0.22;;;;;;;24.24;35.51;98894.28;5125251;28;20043;-68
2022/11/09 02:44:28;;;;;;;0.57;0.40;;;;;;;24.25;35.59;98896.66;5113414;28;20519;-60
2022/11/09 02:46:53;;;;;;;0.50;0.30;;;;;;;24.26;35.46;98895.44;5110383;28;20130;-60
2022/11/09 02:49:19;;;;;;;0.80;0.40;;;;;;;24.25;35.67;98891.06;5122124;28;20447;-60
2022/11/09 02:51:44;;;;;;;0.50;0.30;;;;;;;24.27;35.57;98893.44;5117334;28;20060;-68
2022/11/09 02:54:10;;;;;;;0.30;0.30;;;;;;;24.26;35.53;98894.66;5111553;28;20028;-68
2022/11/09 02:56:35;;;;;;;0.47;0.20;;;;;;;24.25;35.59;98890.28;5113438;28;20040;-60
2022/11/09 02:59:02;;;;;;;0.68;0.38;;;;;;;24.24;35.54;98885.88;5110299;28;20126;-62
2022/11/09 03:01:28;;;;;;;0.40;0.30;;;;;;;24.26;35.60;98892.66;5120003;28;20128;-60
2022/11/09 03:03:54;;;;;;;0.30;0.22;;;;;;;24.25;35.44;98885.47;5117457;28;20071;-67
2022/11/09 03:06:19;;;;;;;0.43;0.30;;;;;;;24.25;35.50;98890.28;5112176;28;20036;-68
2022/11/09 03:08:45;;;;;;;0.35;0.30;;;;;;;24.25;35.66;98896.66;5122186;28;20035;-60
2022/11/09 03:11:10;;;;;;;0.20;0.20;;;;;;;24.24;35.60;98894.28;5118413;28;20043;-60
2022/11/09 03:13:36;;;;;;;1.63;0.22;;;;;;;24.25;35.46;98898.66;5114847;28;20039;-60
2022/11/09 03:16:07;;;;;;;0.40;0.30;;;;;;;24.26;35.47;98897.44;5110320;28;20048;-67
2022/11/09 03:18:33;;;;;;;0.35;0.20;;;;;;;24.24;35.54;98889.47;5115919;28;20419;-60
2022/11/09 03:21:02;;;;;;;0.22;0.22;;;;;;;24.26;35.39;98903.81;5111661;28;20040;-68
2022/11/09 03:23:28;;;;;;;0.40;0.30;;;;;;;24.24;35.51;98895.06;5117909;28;20444;-67
2022/11/09 03:25:53;;;;;;;0.20;0.20;;;;;;;24.29;35.82;98897.44;5116017;28;20050;-67
2022/11/09 03:28:18;;;;;;;0.30;0.30;;;;;;;24.31;35.45;98891.44;5127570;28;20051;-60
2022/11/09 03:30:44;;;;;;;0.40;0.30;;;;;;;24.35;35.34;98895.00;5120452;28;20040;-68
2022/11/09 03:33:11;;;;;;;0.32;0.30;;;;;;;24.37;35.44;98899.00;5122069;28;20043;-67
2022/11/09 03:35:37;;;;;;;0.32;0.30;;;;;;;24.36;35.33;98888.19;5111634;28;20062;-60
2022/11/09 03:38:03;;;;;;;0.30;0.30;;;;;;;24.34;35.43;98894.22;5109731;28;20059;-60
2022/11/09 03:40:29;;;;;;;0.30;0.30;;;;;;;24.33;35.27;98892.63;5109655;28;20048;-68
2022/11/09 03:42:54;;;;;;;0.70;0.40;;;;;;;24.32;35.20;98891.00;5109844;28;20031;-60
2022/11/09 03:45:20;;;;;;;0.50;0.32;;;;;;;24.31;35.20;98892.22;5109453;28;20384;-68
2022/11/09 03:47:46;;;;;;;0.22;0.20;;;;;;;24.32;35.38;98896.59;5114900;28;20039;-60
2022/11/09 03:50:13;;;;;;;0.30;0.22;;;;;;;24.30;35.25;98898.22;5109765;28;20054;-68
2022/11/09 03:52:39;;;;;;;0.20;0.20;;;;;;;24.29;35.26;98893.81;5116694;28;20051;-60
2022/11/09 03:55:05;;;;;;;0.38;0.22;;;;;;;24.29;35.47;98897.44;5113795;28;20051;-68
2022/11/09 03:57:31;;;;;;;0.32;0.20;;;;;;;24.29;35.40;98900.22;5129745;28;20043;-60
2022/11/09 03:59:56;;;;;;;0.30;0.30;;;;;;;24.29;35.54;98907.78;5113804;28;20087;-60
2022/11/09 04:02:22;;;;;;;0.40;0.30;;;;;;;24.29;35.37;98907.78;5115703;28;20049;-68
2022/11/09 04:04:47;;;;;;;0.68;0.47;;;;;;;24.30;35.26;98915.00;5091496;28;20419;-58
2022/11/09 04:07:13;;;;;;;0.85;0.35;;;;;;;24.27;35.55;98910.22;5130085;28;20047;-66
2022/11/09 04:09:38;;;;;;;0.43;0.32;;;;;;;24.26;35.49;98909.41;5129880;28;20541;-59
2022/11/09 04:12:04;;;;;;;0.50;0.40;;;;;;;24.27;35.59;98913.00;5121690;28;20099;-67
2022/11/09 04:14:30;;;;;;;0.40;0.30;;;;;;;24.24;35.57;98911.84;5124570;27;20075;-59
2022/11/09 04:16:55;;;;;;;0.60;0.40;;;;;;;24.25;35.61;98919.00;5112937;28;20411;-68
2022/11/09 04:19:20;;;;;;;2.42;0.40;;;;;;;24.24;35.83;98914.63;5115061;28;21535;-67
2022/11/09 04:21:46;;;;;;;0.50;0.43;;;;;;;24.24;35.61;98916.63;5112790;28;20180;-58
2022/11/09 04:24:11;;;;;;;0.68;0.50;;;;;;;24.24;35.61;98911.03;5122950;28;20047;-59
2022/11/09 04:26:37;;;;;;;1.10;0.40;;;;;;;24.24;35.79;98916.63;5120281;28;20083;-67
2022/11/09 04:29:02;;;;;;;1.48;0.40;;;;;;;24.23;35.92;98915.03;5117428;28;20035;-59
2022/11/09 04:31:27;;;;;;;0.68;0.40;;;;;;;24.22;35.92;98913.44;5113217;28;20467;-60
2022/11/09 04:33:53;;;;;;;0.60;0.32;;;;;;;24.22;35.93;98911.47;5127667;28;20067;-59
2022/11/09 04:36:18;;;;;;;0.90;0.32;;;;;;;24.23;36.00;98915.03;5101530;28;20054;-59
2022/11/09 04:38:44;;;;;;;0.75;0.40;;;;;;;24.23;35.69;98903.88;5120341;28;20035;-59
2022/11/09 04:41:09;;;;;;;0.50;0.32;;;;;;;24.19;35.74;98886.31;5118515;28;20128;-67
2022/11/09 04:43:34;;;;;;;0.43;0.30;;;;;;;24.23;35.82;98903.88;5115685;28;20039;-59
2022/11/09 04:46:01;;;;;;;0.30;0.30;;;;;;;24.23;35.98;98903.88;5107374;28;20146;-67
2022/11/09 04:48:27;;;;;;;0.50;0.30;;;;;;;24.22;35.73;98897.47;5116470;28;20047;-68
2022/11/09 04:51:01;;;;;;;0.45;0.40;;;;;;;24.23;36.01;98887.09;5112613;28;20040;-59
2022/11/09 04:53:27;;;;;;;0.70;0.40;;;;;;;24.23;35.82;98889.91;5125654;28;20056;-59
2022/11/09 04:55:52;;;;;;;0.93;0.40;;;;;;;24.23;35.77;98889.91;5127628;28;20039;-68
2022/11/09 04:58:18;;;;;;;0.30;0.30;;;;;;;24.23;35.95;98887.09;5113484;28;20056;-59
2022/11/09 05:00:43;;;;;;;0.47;0.30;;;;;;;24.21;35.63;98881.91;5126436;28;20126;-67
2022/11/09 05:03:08;;;;;;;0.40;0.30;;;;;;;24.22;35.72;98891.06;5124705;28;20081;-67
2022/11/09 05:05:36;;;;;;;0.20;0.20;;;;;;;24.23;35.91;98890.69;5119594;28;20051;-59
2022/11/09 05:08:02;;;;;;;0.57;0.50;;;;;;;24.21;35.88;98876.31;5132868;28;20100;-59
2022/11/09 05:10:27;;;;;;;0.38;0.38;;;;;;;24.21;35.89;98873.50;5112986;28;20466;-67
2022/11/09 05:13:05;;;;;;;0.50;0.30;;;;;;;24.18;35.98;98885.53;5114607;28;20040;-67
2022/11/09 05:15:31;;;;;;;0.40;0.38;;;;;;;24.23;36.06;98887.09;5118824;28;20039;-67
2022/11/09 05:17:56;;;;;;;0.35;0.20;;;;;;;24.22;36.01;98877.09;5119836;28;20095;-59
2022/11/09 05:20:23;;;;;;;0.35;0.30;;;;;;;24.22;36.04;98875.13;5119550;28;20051;-66
2022/11/09 05:25:32;;;;;;;0.28;0.25;;;;;;;24.19;36.07;98869.56;5130569;27;20045;-68
2022/11/09 05:27:58;;;;;;;0.60;0.40;;;;;;;24.20;36.26;98871.13;5114299;28;20044;-67
2022/11/09 05:30:23;;;;;;;0.90;0.50;;;;;;;24.20;36.10;98887.91;5124853;28;20039;-67
2022/11/09 05:32:49;;;;;;;0.45;0.40;;;;;;;24.19;36.33;98894.69;5111682;28;20506;-59
2022/11/09 05:35:14;;;;;;;1.00;0.52;;;;;;;24.19;36.28;98908.69;5113857;28;20096;-67
2022/11/09 05:37:40;;;;;;;1.00;0.60;;;;;;;24.19;36.21;98931.81;5103656;28;20035;-59
2022/11/09 05:40:07;;;;;;;0.43;0.30;;;;;;;24.16;36.38;98916.69;5111435;28;20051;-66
2022/11/09 05:42:33;;;;;;;1.20;0.55;;;;;;;24.14;36.23;98904.31;5113537;28;20072;-66
2022/11/09 05:44:59;;;;;;;0.50;0.40;;;;;;;24.12;36.20;98896.34;5113026;28;20136;-67
2022/11/09 05:47:24;;;;;;;0.98;0.60;;;;;;;24.13;36.08;98911.09;5090332;28;20068;-68
2022/11/09 05:49:49;;;;;;;0.77;0.60;;;;;;;24.11;36.21;98911.53;5131735;28;20071;-60
2022/11/09 05:52:15;;;;;;;0.75;0.52;;;;;;;24.12;36.13;98935.47;5119824;28;20047;-60
2022/11/09 05:54:40;;;;;;;1.23;0.57;;;;;;;24.11;36.02;98931.06;5113525;28;20036;-68
2022/11/09 05:57:06;;;;;;;1.02;0.60;;;;;;;24.12;36.15;98931.88;5111193;28;20483;-60
2022/11/09 05:59:31;;;;;;;1.50;0.70;;;;;;;24.13;36.09;98933.47;5094963;28;20048;-67
2022/11/09 06:01:57;;;;;;;1.00;0.63;;;;;;;24.14;35.92;98935.84;5119968;28;20502;-68
2022/11/09 06:04:22;;;;;;;0.90;0.60;;;;;;;24.14;35.96;98935.84;5116226;28;20043;-67
2022/11/09 06:06:47;;;;;;;0.50;0.40;;;;;;;24.14;36.01;98943.44;5118122;28;20130;-60
2022/11/09 06:09:13;;;;;;;1.20;0.45;;;;;;;24.15;36.16;98942.25;5118202;28;20534;-67
2022/11/09 06:11:38;;;;;;;2.30;0.68;;;;;;;24.17;36.15;98959.38;5117936;28;20043;-67
2022/11/09 06:14:03;;;;;;;1.45;0.68;;;;;;;24.15;36.05;98948.63;5114083;28;20047;-67
2022/11/09 06:16:29;;;;;;;0.65;0.50;;;;;;;24.15;35.71;98965.41;5111397;28;20062;-67
2022/11/09 06:18:54;;;;;;;1.02;0.60;;;;;;;24.17;35.61;98968.56;5106318;28;20035;-68
2022/11/09 06:21:20;;;;;;;1.23;0.70;;;;;;;24.16;35.91;98978.16;5121941;28;20042;-60
2022/11/09 06:23:45;;;;;;;2.60;0.60;;;;;;;24.17;35.88;98990.91;5119051;28;20044;-58
2022/11/09 06:26:11;;;;;;;1.45;0.60;;;;;;;24.17;36.00;98979.75;5125911;28;20039;-59
2022/11/09 06:28:38;;;;;;;0.90;0.70;;;;;;;24.19;35.97;98998.88;5113981;28;20051;-59
2022/11/09 06:31:06;;;;;;;1.63;0.68;;;;;;;24.18;35.94;99000.09;5113577;28;20480;-59
2022/11/09 06:33:33;;;;;;;2.35;0.57;;;;;;;24.19;36.06;98992.50;5116784;28;20035;-67
2022/11/09 06:35:58;;;;;;;1.00;0.70;;;;;;;24.19;36.14;98990.50;5115621;28;20027;-67
2022/11/09 06:38:27;;;;;;;1.52;0.60;;;;;;;24.19;36.14;98992.50;5125644;27;20529;-60
2022/11/09 06:40:54;;;;;;;0.80;0.60;;;;;;;24.19;36.17;99004.47;5116806;28;20385;-60
2022/11/09 06:43:20;;;;;;;1.00;0.50;;;;;;;24.20;36.72;99010.88;5105032;28;20119;-55
2022/11/09 06:45:46;;;;;;;14.10;1.60;;;;;;;24.16;36.95;99014.50;5115534;28;20118;-64
2022/11/09 06:48:12;;;;;;;8.68;1.20;;;;;;;24.20;36.83;99019.25;5125555;28;20043;-68
2022/11/09 06:50:37;;;;;;;13.38;1.17;;;;;;;24.17;37.06;99012.50;5125883;28;20054;-67
2022/11/09 06:53:06;;;;;;;4.80;1.00;;;;;;;24.16;37.12;99014.50;5118960;28;20172;-68
2022/11/09 06:55:33;;;;;;;7.57;1.38;;;;;;;24.26;37.25;99014.81;5119741;28;20506;-55
2022/11/09 06:57:59;;;;;;;12.73;1.30;;;;;;;24.30;37.02;99015.63;5112673;28;20036;-68
2022/11/09 07:00:26;;;;;;;11.48;1.35;;;;;;;24.35;36.82;99018.78;5115798;28;20035;-55
2022/11/09 07:02:52;;;;;;;9.00;0.95;;;;;;;24.37;37.00;99024.78;5118520;28;20048;-55
2022/11/09 07:05:18;;;;;;;2.47;0.90;;;;;;;24.33;36.84;99034.38;5117812;28;20092;-68
2022/11/09 07:07:43;;;;;;;3.63;0.70;;;;;;;24.31;37.08;99040.34;5112329;28;20040;-55
2022/11/09 07:10:10;;;;;;;4.50;0.90;;;;;;;24.29;37.12;99030.78;5112708;28;20403;-55
2022/11/09 07:12:35;;;;;;;5.60;1.02;;;;;;;24.26;37.14;99060.34;5111246;28;20048;-55
2022/11/09 07:15:02;;;;;;;6.65;1.00;;;;;;;24.25;37.29;99063.53;5128394;28;20058;-68
2022/11/09 07:17:31;;;;;;;5.68;0.90;;;;;;;24.24;37.39;99059.97;5113763;28;20072;-55
2022/11/09 07:19:56;;;;;;;3.97;0.90;;;;;;;24.23;37.28;99057.56;5115377;28;20051;-69
2022/11/09 07:22:22;;;;;;;3.47;1.02;;;;;;;24.23;37.51;99063.16;5113894;28;20097;-68
2022/11/09 07:24:47;;;;;;;4.25;0.85;;;;;;;24.22;37.54;99058.75;5109550;28;20424;-67
2022/11/09 07:27:13;;;;;;;2.95;0.80;;;;;;;24.21;37.71;99065.56;5115415;28;20039;-55
2022/11/09 07:29:38;;;;;;;5.05;0.73;;;;;;;24.19;37.86;99071.56;5091704;28;20039;-55
2022/11/09 07:32:04;;;;;;;2.17;0.80;;;;;;;24.19;38.03;99070.75;5113227;28;20047;-56
2022/11/09 07:34:29;;;;;;;3.83;0.90;;;;;;;24.18;37.96;99053.19;5121498;28;20096;-69
2022/11/09 07:36:55;;;;;;;2.33;0.82;;;;;;;24.18;37.99;99069.97;5119498;28;20799;-68
2022/11/09 07:39:21;;;;;;;2.30;0.85;;;;;;;24.19;37.92;99077.13;5118439;27;20103;-56
2022/11/09 07:41:47;;;;;;;2.22;0.80;;;;;;;24.16;38.37;99075.97;5119994;28;20047;-55
2022/11/09 07:44:17;;;;;;;2.28;0.90;;;;;;;24.14;38.24;99072.75;5117172;27;20097;-68
2022/11/09 07:46:46;;;;;;;1.30;0.63;;;;;;;24.14;38.64;99075.56;5114765;28;20038;-55
2022/11/09 07:49:12;;;;;;;1.88;0.60;;;;;;;24.15;38.69;99077.16;5109433;28;20646;-55
2022/11/09 07:51:38;;;;;;;1.38;0.82;;;;;;;24.14;38.35;99075.56;5112524;28;20073;-56
2022/11/09 07:54:04;;;;;;;1.98;0.75;;;;;;;24.16;38.68;99075.16;5119487;27;20070;-56
2022/11/09 07:56:29;;;;;;;2.97;1.27;;;;;;;24.20;39.20;99075.13;5115457;28;20039;-56
2022/11/09 07:58:55;;;;;;;7.57;1.20;;;;;;;24.21;40.14;99071.13;5109441;27;22096;-69
2022/11/09 08:01:20;;;;;;;1.63;0.70;;;;;;;24.28;39.36;99097.06;5112570;27;20039;-56
2022/11/09 08:03:46;;;;;;;2.50;1.00;;;;;;;24.33;39.52;99090.28;5114389;27;20478;-70
2022/11/09 08:06:11;;;;;;;2.33;0.98;;;;;;;24.34;39.55;99075.91;5089512;28;20037;-68
2022/11/09 08:08:37;;;;;;;2.67;0.90;;;;;;;24.37;39.71;99071.50;5112977;28;20039;-68
2022/11/09 08:11:02;;;;;;;4.13;1.88;;;;;;;24.38;39.54;99073.09;5114002;28;20039;-66
2022/11/09 08:13:28;;;;;;;1.70;0.85;;;;;;;24.46;39.75;99076.66;5114993;28;20650;-66
2022/11/09 08:15:56;;;;;;;3.55;0.80;;;;;;;24.52;39.65;99087.00;5095001;28;20071;-65
2022/11/09 08:18:22;;;;;;;2.13;1.00;;;;;;;24.54;39.59;99084.59;5104477;27;20028;-70
2022/11/09 08:20:48;;;;;;;1.90;0.90;;;;;;;24.58;39.58;99087.38;5093211;28;20051;-65
2022/11/09 08:23:16;;;;;;;2.13;0.90;;;;;;;24.59;39.46;99089.75;5108597;28;20130;-68
2022/11/09 08:25:42;;;;;;;2.60;1.00;;;;;;;24.63;39.40;99104.50;5113377;27;21074;-54
2022/11/09 08:28:08;;;;;;;1.30;0.77;;;;;;;24.66;39.70;99100.09;5104196;28;20051;-55
2022/11/09 08:30:34;;;;;;;2.90;1.00;;;;;;;24.67;39.64;99096.91;5116034;28;20042;-55
2022/11/09 08:33:02;;;;;;;2.45;0.88;;;;;;;24.70;39.65;99098.84;5109447;27;20081;-60
2022/11/09 08:35:28;;;;;;;1.95;0.93;;;;;;;24.75;39.62;99108.84;5110093;27;20101;-66
2022/11/09 08:37:54;;;;;;;4.30;1.05;;;;;;;24.75;39.60;99116.44;5113669;28;20419;-56
2022/11/09 08:40:23;;;;;;;2.75;0.93;;;;;;;24.79;39.63;99125.59;5113843;28;20522;-73
2022/11/09 08:42:50;;;;;;;2.70;1.00;;;;;;;24.82;39.68;99119.19;5092978;28;20059;-73
2022/11/09 08:45:16;;;;;;;2.88;1.08;;;;;;;24.82;39.74;99121.97;5108181;28;20079;-54
2022/11/09 08:47:43;;;;;;;2.97;0.90;;;;;;;24.85;39.69;99123.94;5109981;28;20040;-69
2022/11/09 08:50:10;;;;;;;4.22;0.77;;;;;;;24.86;39.59;99122.75;5114887;27;20043;-54
2022/11/09 08:52:36;;;;;;;1.70;0.85;;;;;;;24.88;39.56;99118.34;5111163;27;20039;-58
2022/11/09 08:55:02;;;;;;;3.42;1.10;;;;;;;24.89;39.29;99113.53;5112943;28;20047;-57
2022/11/09 08:57:28;;;;;;;1.85;0.90;;;;;;;24.86;39.65;99109.56;5084912;28;20067;-71
2022/11/09 08:59:53;;;;;;;1.50;0.80;;;;;;;24.88;39.52;99109.16;5111590;28;20422;-75
2022/11/09 09:02:19;;;;;;;3.50;0.93;;;;;;;24.90;39.60;99127.13;5114492;27;20056;-57
2022/11/09 09:04:45;;;;;;;1.13;0.70;;;;;;;24.92;39.35;99132.28;5115901;28;20055;-54
2022/11/09 09:07:12;;;;;;;6.25;1.08;;;;;;;24.96;39.58;99130.28;5108086;28;20138;-56
2022/11/09 09:09:37;;;;;;;2.25;0.85;;;;;;;24.95;39.72;99137.09;5112367;28;20050;-68
2022/11/09 09:12:05;;;;;;;1.95;0.77;;;;;;;25.00;39.25;99136.63;5111933;27;20040;-70
2022/11/09 09:14:30;;;;;;;6.28;1.10;;;;;;;24.99;39.66;99129.44;5121093;28;20088;-48
2022/11/09 09:16:56;;;;;;;4.20;1.38;;;;;;;25.01;39.65;99127.06;5108044;28;20055;-50
2022/11/09 09:19:21;;;;;;;2.08;0.95;;;;;;;25.03;39.38;99119.03;5122081;28;20448;-49
2022/11/09 09:21:47;;;;;;;5.78;1.30;;;;;;;25.09;39.66;99122.22;5115397;27;20058;-72
2022/11/09 09:24:12;;;;;;;3.53;1.00;;;;;;;25.12;39.50;99127.00;5089873;28;20098;-52
2022/11/09 09:26:38;;;;;;;2.25;0.90;;;;;;;25.10;39.52;99123.81;5115869;28;20594;-54
2022/11/09 09:29:03;;;;;;;4.35;0.90;;;;;;;25.12;39.30;99111.00;5118911;28;20189;-51
2022/11/09 09:31:29;;;;;;;2.20;1.00;;;;;;;25.14;39.51;99113.38;5113585;27;20044;-68
2022/11/09 09:33:54;;;;;;;2.30;0.90;;;;;;;25.12;39.29;99110.19;5115097;28;20043;-68
2022/11/09 09:36:22;;;;;;;1.48;0.68;;;;;;;25.15;39.38;99112.19;5110401;28;20474;-67
2022/11/09 09:38:52;;;;;;;1.85;0.90;;;;;;;25.16;39.33;99108.19;5115899;28;20070;-65
2022/11/09 09:41:29;;;;;;;2.35;0.82;;;;;;;25.16;39.29;99106.19;5106939;28;20139;-67
2022/11/09 09:44:00;;;;;;;1.77;0.88;;;;;;;25.20;39.43;99111.75;5115728;27;20043;-49
2022/11/09 09:46:45;;;;;;;1.73;0.85;;;;;;;25.20;39.33;99100.53;5112502;27;20098;-68
2022/11/09 09:49:17;;;;;;;2.33;0.80;;;;;;;25.24;39.54;99095.72;5110531;28;20077;-71
2022/11/09 09:52:12;;;;;;;1.45;0.80;;;;;;;25.23;39.23;99108.91;5109787;28;20055;-52
2022/11/09 09:54:47;;;;;;;1.33;0.80;;;;;;;25.27;39.48;99105.28;5062032;28;20047;-53
2022/11/09 09:57:19;;;;;;;3.85;1.05;;;;;;;25.25;39.49;99105.72;5111141;28;20516;-67
2022/11/09 09:59:50;;;;;;;1.40;0.85;;;;;;;25.26;39.57;99112.88;5112437;27;20411;-70
2022/11/09 10:02:26;;;;;;;1.88;0.85;;;;;;;25.25;39.62;99114.91;5112381;27;20048;-66
2022/11/09 10:04:54;;;;;;;2.33;1.00;;;;;;;25.26;39.54;99104.50;5115418;27;20111;-66
2022/11/09 10:07:49;;;;;;;1.58;0.80;;;;;;;25.26;39.68;99104.50;5112174;27;20062;-64
2022/11/09 10:10:35;;;;;;;2.92;0.80;;;;;;;25.28;39.59;99101.28;5094829;27;20047;-50
2022/11/09 10:13:19;;;;;;;4.65;1.20;;;;;;;25.27;39.84;99106.06;5113381;27;20502;-70
2022/11/09 10:16:21;;;;;;;3.15;1.95;;;;;;;25.24;39.91;99107.72;5120353;28;20039;-47
2022/11/09 10:18:55;;;;;;;47.47;38.33;;;;;;;25.24;40.21;99112.50;5110374;28;20035;-50
2022/11/09 10:21:33;;;;;;;21.58;16.83;;;;;;;25.20;40.33;99114.53;5116397;28;20051;-48
2022/11/09 10:24:18;;;;;;;23.85;15.07;;;;;;;25.14;40.38;99108.56;5112756;28;20043;-47
2022/11/09 10:26:50;;;;;;;22.50;16.70;;;;;;;25.06;40.33;99100.66;5116210;27;20092;-71
2022/11/09 10:29:25;;;;;;;19.50;16.27;;;;;;;25.06;40.40;99109.84;5116711;28;20146;-49
2022/11/09 10:31:59;;;;;;;20.45;14.77;;;;;;;25.08;40.58;99110.25;5114373;28;20051;-51
2022/11/09 10:34:28;;;;;;;17.33;14.10;;;;;;;25.12;40.57;99115.81;5112278;28;20031;-48
2022/11/09 10:37:09;;;;;;;15.50;12.05;;;;;;;25.14;40.68;99119.78;5115945;27;20053;-70
2022/11/09 10:39:41;;;;;;;16.10;12.73;;;;;;;25.16;40.65;99125.78;5107064;27;20039;-47
2022/11/09 10:42:10;;;;;;;15.23;10.60;;;;;;;25.17;40.69;99132.97;5112517;27;20055;-51
2022/11/09 10:44:35;;;;;;;11.32;8.02;;;;;;;25.20;40.69;99123.72;5114272;27;20820;-57
2022/11/09 10:47:06;;;;;;;12.43;8.70;;;;;;;25.21;40.76;99125.31;5116628;27;20040;-49
2022/11/09 10:49:33;;;;;;;10.25;7.82;;;;;;;25.21;40.81;99119.72;5113503;27;20043;-49
2022/11/09 10:51:59;;;;;;;8.68;6.32;;;;;;;25.23;40.63;99116.53;5084047;28;20069;-47
2022/11/09 10:54:33;;;;;;;8.70;6.68;;;;;;;25.23;40.84;99117.31;5109030;27;20055;-65
2022/11/09 10:57:21;;;;;;;9.23;6.30;;;;;;;25.28;40.92;99143.25;5109885;27;20123;-49
2022/11/09 10:59:52;;;;;;;7.60;5.82;;;;;;;25.28;40.84;99146.84;5088285;28;20104;-66
2022/11/09 11:02:24;;;;;;;12.50;6.10;;;;;;;25.28;40.78;99135.66;5108446;28;20050;-74
2022/11/09 11:05:05;;;;;;;9.82;5.70;;;;;;;25.27;41.38;99147.28;5113246;27;20107;-71
2022/11/09 11:07:32;;;;;;;8.88;5.10;;;;;;;25.22;41.43;99143.72;5109115;28;20410;-73
2022/11/09 11:10:14;;;;;;;11.38;4.90;;;;;;;25.20;41.39;99148.13;5113443;27;20056;-48
2022/11/09 11:12:50;;;;;;;10.93;4.57;;;;;;;25.28;41.62;99146.06;5084845;28;20048;-61
2022/11/09 11:15:25;;;;;;;8.48;4.38;;;;;;;25.30;41.30;99149.28;5113349;28;20035;-69
2022/11/09 11:18:00;;;;;;;6.57;3.63;;;;;;;25.25;41.77;99142.88;5118443;28;20510;-68
2022/11/09 11:20:36;;;;;;;12.10;3.80;;;;;;;25.22;41.91;99149.31;5114635;28;20042;-51
2022/11/09 11:23:16;;;;;;;16.73;3.50;;;;;;;25.18;41.38;99147.75;5119534;28;20031;-70
2022/11/09 11:25:54;;;;;;;9.48;3.67;;;;;;;25.15;41.89;99154.97;5112903;28;20054;-51
2022/11/09 11:28:29;;;;;;;5.63;3.03;;;;;;;25.13;42.25;99145.38;5117887;28;20055;-53
2022/11/09 11:30:55;;;;;;;7.60;3.20;;;;;;;25.12;42.14;99161.38;5116968;28;20055;-70
2022/11/09 11:33:23;;;;;;;7.47;3.30;;;;;;;25.11;42.20;99156.19;5123005;28;20101;-73
2022/11/09 11:35:57;;;;;;;5.90;2.80;;;;;;;25.08;41.93;99145.84;5116121;28;20052;-51
2022/11/09 11:38:36;;;;;;;7.18;2.50;;;;;;;25.10;41.94;99158.19;5118374;28;20482;-56